Time;durP1;ratioP1;P1;durP2;ratioP2;P2;SDS_P1;SDS_P2;PMS_P1;PMS_P2;Temp;Humidity;BMP_temperature;BMP_pressure;BME280_temperature;BME280_humidity;BME280_pressure;Samples;Min_cycle;Max_cycle;Signal;HPM_P1;HPM_P2
2020/12/10 00:01:50;;;;;;;79.32;31.88;;;0.40;99.90;;;;;;5010138;28;20451;-72
2020/12/10 00:04:18;;;;;;;78.05;32.85;;;0.40;99.90;;;;;;5009511;28;20056;-72
2020/12/10 00:06:44;;;;;;;75.05;33.60;;;0.40;99.90;;;;;;5002580;28;20547;-72
2020/12/10 00:09:11;;;;;;;79.38;32.85;;;0.40;99.90;;;;;;4989855;28;20513;-76
2020/12/10 00:11:37;;;;;;;88.55;36.00;;;0.40;99.90;;;;;;4992802;28;20656;-73
2020/12/10 00:14:05;;;;;;;92.20;35.85;;;0.40;99.90;;;;;;5009330;28;20382;-73
2020/12/10 00:16:32;;;;;;;91.25;34.20;;;0.30;99.90;;;;;;4992329;28;20050;-73
2020/12/10 00:18:59;;;;;;;82.85;33.55;;;0.40;99.90;;;;;;5009331;28;20049;-73
2020/12/10 00:21:25;;;;;;;79.40;32.75;;;0.40;99.90;;;;;;4991997;28;20061;-73
2020/12/10 00:23:52;;;;;;;82.35;33.08;;;0.40;99.90;;;;;;5007048;28;20050;-73
2020/12/10 00:26:21;;;;;;;81.18;33.58;;;0.40;99.90;;;;;;5010058;28;20132;-72
2020/12/10 00:28:47;;;;;;;76.85;31.80;;;0.40;99.90;;;;;;4998608;28;20209;-72
2020/12/10 00:31:14;;;;;;;89.57;33.75;;;0.40;99.90;;;;;;4992289;28;20148;-74
2020/12/10 00:33:41;;;;;;;91.50;35.33;;;0.40;99.90;;;;;;5008906;28;20449;-73
2020/12/10 00:36:07;;;;;;;88.50;35.25;;;0.40;99.90;;;;;;5009438;28;20164;-73
2020/12/10 00:38:34;;;;;;;86.93;33.72;;;0.30;99.90;;;;;;5007814;28;20133;-73
2020/12/10 00:41:00;;;;;;;102.43;36.92;;;0.30;99.90;;;;;;5009261;28;20136;-73
2020/12/10 00:43:26;;;;;;;92.47;35.05;;;0.30;99.90;;;;;;4991569;28;20045;-73
2020/12/10 00:45:53;;;;;;;89.78;35.17;;;0.30;99.90;;;;;;5009526;28;20142;-74
2020/12/10 00:48:19;;;;;;;101.43;36.67;;;0.30;99.90;;;;;;4991646;28;20092;-73
2020/12/10 00:50:46;;;;;;;106.38;37.47;;;0.30;99.90;;;;;;5009401;28;20053;-73
2020/12/10 00:53:12;;;;;;;94.93;36.47;;;0.30;99.90;;;;;;4989978;28;20105;-73
2020/12/10 00:55:38;;;;;;;105.18;40.03;;;0.30;99.90;;;;;;4991454;28;20427;-73
2020/12/10 00:58:05;;;;;;;107.97;39.00;;;0.30;99.90;;;;;;5008796;28;20054;-73
2020/12/10 01:00:31;;;;;;;105.32;38.65;;;0.30;99.90;;;;;;4991865;28;20467;-73
2020/12/10 01:02:58;;;;;;;113.28;41.22;;;0.20;99.90;;;;;;4991303;28;20085;-73
2020/12/10 01:05:24;;;;;;;116.68;39.25;;;0.20;99.90;;;;;;4991288;28;20504;-74
2020/12/10 01:07:51;;;;;;;113.95;42.08;;;0.20;99.90;;;;;;5007291;28;20050;-74
2020/12/10 01:10:17;;;;;;;105.85;39.05;;;0.30;99.90;;;;;;4985224;28;20555;-73
2020/12/10 01:12:43;;;;;;;100.13;40.63;;;0.20;99.90;;;;;;5000073;28;20054;-73
2020/12/10 01:15:10;;;;;;;107.72;39.92;;;0.20;99.90;;;;;;5008968;28;20153;-73
2020/12/10 01:17:41;;;;;;;103.32;40.33;;;0.20;99.90;;;;;;4993997;28;20054;-73
2020/12/10 01:20:09;;;;;;;102.85;38.00;;;0.20;99.90;;;;;;4995180;28;20049;-72
2020/12/10 01:22:37;;;;;;;112.70;41.10;;;0.20;99.90;;;;;;5011332;28;20073;-73
2020/12/10 01:25:05;;;;;;;109.05;40.70;;;0.20;99.90;;;;;;4994887;28;20053;-73
2020/12/10 01:27:32;;;;;;;112.50;39.88;;;0.20;99.90;;;;;;5011904;28;20045;-73
2020/12/10 01:29:59;;;;;;;109.75;39.90;;;0.20;99.90;;;;;;4994977;28;20104;-74
2020/12/10 01:32:26;;;;;;;111.30;38.45;;;0.20;99.90;;;;;;5011882;28;20484;-73
2020/12/10 01:34:53;;;;;;;122.45;41.53;;;0.20;99.90;;;;;;5013342;28;20077;-74
2020/12/10 01:37:19;;;;;;;105.68;39.15;;;0.20;99.90;;;;;;4995166;28;20127;-72
2020/12/10 01:39:46;;;;;;;102.45;39.08;;;0.20;99.90;;;;;;4992891;28;20128;-73
2020/12/10 01:42:12;;;;;;;101.75;38.95;;;0.30;99.90;;;;;;5009647;28;20077;-73
2020/12/10 01:44:39;;;;;;;98.28;38.33;;;0.20;99.90;;;;;;5020843;28;20131;-73
2020/12/10 01:47:05;;;;;;;111.43;39.47;;;0.20;99.90;;;;;;5014306;28;20045;-75
2020/12/10 01:49:35;;;;;;;106.03;39.03;;;0.20;99.90;;;;;;5031796;28;20050;-73
2020/12/10 01:52:03;;;;;;;106.80;40.35;;;0.20;99.90;;;;;;5028287;28;20098;-73
2020/12/10 01:54:30;;;;;;;114.63;40.58;;;0.20;99.90;;;;;;4998835;28;20493;-73
2020/12/10 01:56:56;;;;;;;96.30;38.78;;;0.20;99.90;;;;;;4994844;28;20468;-74
2020/12/10 01:59:23;;;;;;;102.68;38.40;;;0.20;99.90;;;;;;5009924;28;20108;-73
2020/12/10 02:01:50;;;;;;;107.70;41.05;;;0.10;99.90;;;;;;5011780;28;20053;-73
2020/12/10 02:04:34;;;;;;;108.53;40.47;;;0.10;99.90;;;;;;5031505;28;20507;-73
2020/12/10 02:07:06;;;;;;;104.45;40.70;;;0.10;99.90;;;;;;5014051;28;20096;-75
2020/12/10 02:09:33;;;;;;;104.70;39.67;;;0.10;99.90;;;;;;5004601;28;20050;-73
2020/12/10 02:12:01;;;;;;;91.45;38.35;;;0.20;99.90;;;;;;5028438;28;20069;-75
2020/12/10 02:14:36;;;;;;;93.18;38.97;;;0.10;99.90;;;;;;5031225;28;20410;-73
2020/12/10 02:17:05;;;;;;;96.55;37.30;;;0.20;99.90;;;;;;5029098;28;20140;-74
2020/12/10 02:19:32;;;;;;;90.68;37.45;;;0.10;99.90;;;;;;4997949;28;20144;-73
2020/12/10 02:21:58;;;;;;;84.05;35.03;;;0.10;99.90;;;;;;5011015;28;20340;-73
2020/12/10 02:24:25;;;;;;;79.47;35.65;;;0.10;99.90;;;;;;5007653;28;20061;-73
2020/12/10 02:26:51;;;;;;;77.78;34.55;;;0.00;99.90;;;;;;4987736;28;20057;-73
2020/12/10 02:29:19;;;;;;;75.55;33.63;;;0.00;99.90;;;;;;5009653;28;20060;-73
2020/12/10 02:31:46;;;;;;;77.05;34.92;;;0.00;99.90;;;;;;4993592;28;20100;-73
2020/12/10 02:34:13;;;;;;;79.43;34.78;;;0.00;99.90;;;;;;5010906;28;20068;-73
2020/12/10 02:36:42;;;;;;;66.68;32.88;;;0.00;99.90;;;;;;4993945;28;20085;-74
2020/12/10 02:39:09;;;;;;;70.28;31.70;;;0.00;99.90;;;;;;4991091;28;20108;-74
2020/12/10 02:41:36;;;;;;;70.70;33.35;;;0.00;99.90;;;;;;5011651;28;20460;-73
2020/12/10 02:44:04;;;;;;;64.05;31.70;;;0.00;99.90;;;;;;5010779;28;20046;-73
2020/12/10 02:46:31;;;;;;;63.17;29.80;;;0.00;99.90;;;;;;5011169;28;20432;-73
2020/12/10 02:48:58;;;;;;;66.82;31.52;;;0.00;99.90;;;;;;5003146;28;20049;-74
2020/12/10 02:51:25;;;;;;;53.92;27.52;;;0.00;99.90;;;;;;5015339;28;20081;-74
2020/12/10 02:53:52;;;;;;;53.80;27.83;;;0.00;99.90;;;;;;5026972;28;20049;-74
2020/12/10 02:56:18;;;;;;;53.75;25.90;;;0.00;99.90;;;;;;5027333;28;20471;-73
2020/12/10 02:58:44;;;;;;;53.78;26.48;;;0.00;99.90;;;;;;5028061;28;20153;-73
2020/12/10 03:01:11;;;;;;;50.83;25.05;;;0.00;99.90;;;;;;5007932;28;20133;-74
2020/12/10 03:03:38;;;;;;;49.92;26.30;;;0.10;99.90;;;;;;5030254;28;20073;-74
2020/12/10 03:06:08;;;;;;;46.78;24.92;;;0.10;99.90;;;;;;5013152;28;20073;-74
2020/12/10 03:08:36;;;;;;;49.05;24.90;;;0.10;99.90;;;;;;5028543;28;20045;-74
2020/12/10 03:11:04;;;;;;;43.47;23.38;;;0.10;99.90;;;;;;5022632;28;20050;-74
2020/12/10 03:13:30;;;;;;;36.63;21.33;;;0.00;99.90;;;;;;5030194;28;20046;-74
2020/12/10 03:15:58;;;;;;;38.28;21.10;;;0.00;99.90;;;;;;5030277;28;20587;-74
2020/12/10 03:18:25;;;;;;;35.60;19.83;;;-0.10;99.90;;;;;;5028442;28;20507;-74
2020/12/10 03:20:52;;;;;;;35.25;20.67;;;-0.10;99.90;;;;;;5029226;28;20100;-75
2020/12/10 03:23:19;;;;;;;42.53;23.02;;;-0.10;99.90;;;;;;5028068;28;20219;-74
2020/12/10 03:25:46;;;;;;;42.03;23.52;;;0.00;99.90;;;;;;5020184;28;20084;-74
2020/12/10 03:28:12;;;;;;;48.95;25.98;;;0.00;99.90;;;;;;5002177;28;20077;-74
2020/12/10 03:30:39;;;;;;;53.50;27.83;;;0.00;99.90;;;;;;5029567;28;20080;-73
2020/12/10 03:33:05;;;;;;;64.15;29.85;;;0.10;99.90;;;;;;5029634;28;20167;-74
2020/12/10 03:35:32;;;;;;;61.72;30.50;;;0.10;99.90;;;;;;5022776;28;20057;-74
2020/12/10 03:38:00;;;;;;;74.65;33.85;;;0.10;99.90;;;;;;5021125;28;20145;-75
2020/12/10 03:40:28;;;;;;;73.32;31.60;;;0.10;99.90;;;;;;5012763;28;20338;-74
2020/12/10 03:42:54;;;;;;;84.93;35.70;;;0.10;99.90;;;;;;5029295;28;20076;-76
2020/12/10 03:45:21;;;;;;;90.30;36.50;;;0.10;99.90;;;;;;5028502;28;20045;-75
2020/12/10 03:47:47;;;;;;;87.88;35.40;;;0.10;99.90;;;;;;5027274;28;20078;-76
2020/12/10 03:50:14;;;;;;;77.65;33.60;;;0.10;99.90;;;;;;5030104;28;20061;-75
2020/12/10 03:52:40;;;;;;;82.75;35.90;;;0.10;99.90;;;;;;5027578;28;20942;-75
2020/12/10 03:55:07;;;;;;;90.63;35.88;;;0.10;99.90;;;;;;5024673;28;20088;-75
2020/12/10 03:57:33;;;;;;;89.60;35.80;;;0.10;99.90;;;;;;5029336;28;20069;-75
2020/12/10 04:00:00;;;;;;;90.25;36.75;;;0.10;99.90;;;;;;5027573;28;20535;-75
2020/12/10 04:02:26;;;;;;;95.50;37.55;;;0.10;99.90;;;;;;5028862;28;20107;-74
2020/12/10 04:04:52;;;;;;;104.57;38.50;;;0.10;99.90;;;;;;5029824;28;20045;-74
2020/12/10 04:07:19;;;;;;;104.65;38.28;;;0.10;99.90;;;;;;5029855;28;20072;-74
2020/12/10 04:09:45;;;;;;;103.05;38.35;;;0.10;99.90;;;;;;5019488;28;20132;-74
2020/12/10 04:12:11;;;;;;;91.15;36.80;;;0.10;99.90;;;;;;5029780;28;20124;-74
2020/12/10 04:14:37;;;;;;;89.15;37.95;;;0.10;99.90;;;;;;5029066;28;20073;-74
2020/12/10 04:17:04;;;;;;;102.45;40.38;;;0.10;99.90;;;;;;5004286;28;20132;-75
2020/12/10 04:19:31;;;;;;;103.00;39.47;;;0.10;99.90;;;;;;5029000;28;20041;-74
2020/12/10 04:21:57;;;;;;;109.15;40.03;;;0.10;99.90;;;;;;5011469;28;20156;-74
2020/12/10 04:24:24;;;;;;;107.95;40.72;;;0.10;99.90;;;;;;4998694;28;20062;-76
2020/12/10 04:26:50;;;;;;;112.72;39.95;;;0.10;99.90;;;;;;5023539;28;20054;-74
2020/12/10 04:29:16;;;;;;;119.28;42.33;;;0.10;99.90;;;;;;5018251;28;20057;-74
2020/12/10 04:31:42;;;;;;;121.50;41.40;;;0.10;99.90;;;;;;5022750;28;20489;-74
2020/12/10 04:34:09;;;;;;;108.72;40.65;;;0.10;99.90;;;;;;5028833;28;20069;-74
2020/12/10 04:36:35;;;;;;;111.15;41.40;;;0.10;99.90;;;;;;5029576;28;20551;-74
2020/12/10 04:39:03;;;;;;;106.05;38.33;;;0.10;99.90;;;;;;5023981;28;20065;-75
2020/12/10 04:41:33;;;;;;;113.50;40.33;;;0.10;99.90;;;;;;5019952;28;20045;-74
2020/12/10 04:43:59;;;;;;;109.15;40.30;;;0.00;99.90;;;;;;5000539;28;20073;-76
2020/12/10 04:46:26;;;;;;;116.22;42.38;;;0.10;99.90;;;;;;5029164;28;20479;-74
2020/12/10 04:48:55;;;;;;;118.13;43.33;;;0.10;99.90;;;;;;5028440;28;20128;-74
2020/12/10 04:51:22;;;;;;;120.20;42.97;;;0.10;99.90;;;;;;5029803;28;20045;-74
2020/12/10 04:56:49;;;;;;;130.27;43.92;;;0.10;99.90;;;;;;5007399;28;20128;-73
2020/12/10 04:59:15;;;;;;;129.50;44.67;;;0.00;99.90;;;;;;5015078;28;20128;-73
2020/12/10 05:01:43;;;;;;;142.35;48.25;;;0.00;99.90;;;;;;5015144;28;20128;-74
2020/12/10 05:04:09;;;;;;;158.48;48.58;;;0.00;99.90;;;;;;5032646;28;20045;-75
2020/12/10 05:06:49;;;;;;;160.35;50.17;;;0.00;99.90;;;;;;5032930;28;20046;-75
2020/12/10 05:09:15;;;;;;;182.07;50.63;;;0.00;99.90;;;;;;5023660;28;20650;-75
2020/12/10 05:11:41;;;;;;;193.43;52.78;;;0.00;99.90;;;;;;5019317;28;20077;-74
2020/12/10 05:14:08;;;;;;;201.55;55.80;;;0.00;99.90;;;;;;5024592;28;20083;-75
2020/12/10 05:16:34;;;;;;;216.98;55.53;;;0.00;99.90;;;;;;5026830;28;20570;-74
2020/12/10 05:19:20;;;;;;;210.68;55.55;;;-0.10;99.90;;;;;;5030153;28;20053;-74
2020/12/10 05:22:05;;;;;;;223.93;57.08;;;-0.10;99.90;;;;;;5011131;28;20074;-75
2020/12/10 05:24:34;;;;;;;210.45;56.97;;;-0.10;99.90;;;;;;5023773;28;20081;-74
2020/12/10 05:27:21;;;;;;;235.23;56.97;;;-0.20;99.90;;;;;;5029729;28;20453;-74
2020/12/10 05:29:50;;;;;;;225.20;57.58;;;-0.20;99.90;;;;;;5024284;28;20099;-74
2020/12/10 05:32:54;;;;;;;244.07;59.42;;;-0.10;99.90;;;;;;5032067;28;20046;-74
2020/12/10 05:35:25;;;;;;;242.70;57.55;;;-0.20;99.90;;;;;;5029494;28;20062;-74
2020/12/10 05:37:53;;;;;;;239.20;57.90;;;-0.20;99.90;;;;;;5007671;28;20100;-75
2020/12/10 05:40:21;;;;;;;231.25;56.00;;;-0.20;99.90;;;;;;5015036;28;20436;-74
2020/12/10 05:42:50;;;;;;;224.07;58.33;;;-0.20;99.90;;;;;;5031121;28;20120;-74
2020/12/10 05:45:22;;;;;;;246.18;59.00;;;-0.10;99.90;;;;;;5026456;28;20053;-74
2020/12/10 05:47:59;;;;;;;250.30;59.05;;;-0.10;99.90;;;;;;5031465;28;20041;-74
2020/12/10 05:50:31;;;;;;;274.17;61.08;;;-0.10;99.90;;;;;;5032005;28;20099;-74
2020/12/10 05:53:10;;;;;;;257.83;60.88;;;-0.20;99.90;;;;;;5014133;28;20168;-75
2020/12/10 05:55:39;;;;;;;274.25;60.97;;;-0.20;99.90;;;;;;5004254;28;20046;-74
2020/12/10 05:58:06;;;;;;;274.02;59.45;;;-0.20;99.90;;;;;;5010306;28;20085;-74
2020/12/10 06:00:34;;;;;;;256.60;61.05;;;-0.20;99.90;;;;;;5011573;28;20049;-74
2020/12/10 06:03:01;;;;;;;244.38;58.83;;;-0.20;99.90;;;;;;4992557;28;20446;-74
2020/12/10 06:05:28;;;;;;;226.88;58.67;;;-0.20;99.90;;;;;;5009277;28;20041;-75
2020/12/10 06:08:06;;;;;;;223.40;57.67;;;-0.20;99.90;;;;;;5004027;28;20054;-77
2020/12/10 06:10:40;;;;;;;253.23;60.25;;;-0.20;99.90;;;;;;4994291;28;20081;-74
2020/12/10 06:13:08;;;;;;;237.40;57.17;;;-0.20;99.90;;;;;;5011407;28;20112;-75
2020/12/10 06:15:35;;;;;;;238.27;58.67;;;-0.20;99.90;;;;;;5011578;28;20104;-73
2020/12/10 06:18:11;;;;;;;226.20;55.45;;;-0.20;99.90;;;;;;5010746;28;20112;-75
2020/12/10 06:20:43;;;;;;;243.45;58.72;;;-0.20;99.90;;;;;;5008864;28;20493;-74
2020/12/10 06:23:29;;;;;;;262.98;62.92;;;-0.20;99.90;;;;;;5009680;28;20433;-74
2020/12/10 06:25:58;;;;;;;245.88;58.83;;;-0.30;99.90;;;;;;5008792;28;20046;-75
2020/12/10 06:28:26;;;;;;;234.38;59.30;;;-0.20;99.90;;;;;;5010475;28;20489;-74
2020/12/10 06:31:06;;;;;;;244.23;61.42;;;-0.30;99.90;;;;;;5005439;28;20129;-74
2020/12/10 06:33:41;;;;;;;248.50;59.35;;;-0.20;99.90;;;;;;4996766;28;20054;-73
2020/12/10 06:36:36;;;;;;;253.10;57.55;;;-0.20;99.90;;;;;;4993634;28;20085;-73
2020/12/10 06:39:05;;;;;;;240.38;61.70;;;-0.20;99.90;;;;;;4985306;28;20141;-74
2020/12/10 06:41:57;;;;;;;256.10;59.78;;;-0.20;99.90;;;;;;5002195;28;20394;-74
2020/12/10 06:44:36;;;;;;;227.13;58.53;;;-0.30;99.90;;;;;;5009681;28;20141;-77
2020/12/10 06:47:04;;;;;;;240.25;59.40;;;-0.30;99.90;;;;;;4993097;28;20049;-74
2020/12/10 06:49:31;;;;;;;232.48;58.88;;;-0.20;99.90;;;;;;4993525;28;20053;-75
2020/12/10 06:52:21;;;;;;;214.65;57.97;;;-0.20;99.90;;;;;;5018366;28;20049;-74
2020/12/10 06:55:05;;;;;;;222.85;57.15;;;-0.30;99.90;;;;;;4993242;28;20129;-74
2020/12/10 06:58:14;;;;;;;212.55;56.10;;;-0.20;99.90;;;;;;5009504;28;20141;-75
2020/12/10 07:00:49;;;;;;;229.27;56.95;;;-0.20;99.90;;;;;;4930649;29;20445;-74
2020/12/10 07:03:22;;;;;;;203.05;56.08;;;-0.20;99.90;;;;;;4934619;29;20054;-74
2020/12/10 07:05:52;;;;;;;207.02;55.95;;;-0.20;99.90;;;;;;4936685;28;20070;-75
2020/12/10 07:08:22;;;;;;;195.68;54.58;;;-0.20;99.90;;;;;;4937612;29;20098;-75
2020/12/10 07:10:54;;;;;;;208.00;55.58;;;-0.20;99.90;;;;;;4937502;29;20083;-75
2020/12/10 07:13:31;;;;;;;199.40;55.80;;;-0.20;99.90;;;;;;4916997;29;20055;-74
2020/12/10 07:15:58;;;;;;;194.38;53.63;;;-0.30;99.90;;;;;;4915116;29;20163;-74
2020/12/10 07:18:25;;;;;;;226.90;60.13;;;-0.30;99.90;;;;;;4930155;29;20047;-75
2020/12/10 07:20:53;;;;;;;234.38;59.00;;;-0.20;99.90;;;;;;4933600;29;20414;-74
2020/12/10 07:23:22;;;;;;;221.05;57.33;;;-0.20;99.90;;;;;;4930952;29;20055;-75
2020/12/10 07:25:51;;;;;;;234.15;59.38;;;-0.20;99.90;;;;;;4930739;29;20051;-74
2020/12/10 07:28:24;;;;;;;197.43;54.63;;;-0.30;99.90;;;;;;4929678;29;20043;-74
2020/12/10 07:30:53;;;;;;;244.50;60.85;;;-0.30;99.90;;;;;;4929477;29;20043;-74
2020/12/10 07:33:22;;;;;;;219.02;58.85;;;-0.30;99.90;;;;;;4930364;28;20052;-75
2020/12/10 07:35:48;;;;;;;224.90;60.05;;;-0.20;99.90;;;;;;4990914;28;20065;-74
2020/12/10 07:38:18;;;;;;;218.88;57.78;;;-0.30;99.90;;;;;;4989027;28;20082;-75
2020/12/10 07:40:54;;;;;;;205.80;59.25;;;-0.30;99.90;;;;;;4988957;28;20042;-74
2020/12/10 07:43:21;;;;;;;220.68;60.10;;;-0.30;99.90;;;;;;4976579;28;20069;-73
2020/12/10 07:45:49;;;;;;;202.93;56.92;;;-0.20;99.90;;;;;;4981338;28;20050;-74
2020/12/10 07:48:16;;;;;;;195.27;55.58;;;-0.20;99.90;;;;;;4990039;28;20351;-74
2020/12/10 07:50:46;;;;;;;194.65;56.92;;;-0.20;99.90;;;;;;4990666;28;20100;-74
2020/12/10 07:53:12;;;;;;;196.23;56.15;;;-0.20;99.90;;;;;;4998707;28;20097;-74
2020/12/10 07:56:09;;;;;;;194.55;59.83;;;-0.20;99.90;;;;;;4988800;28;20050;-75
2020/12/10 07:59:07;;;;;;;206.60;59.42;;;-0.20;99.90;;;;;;4973260;28;20129;-73
2020/12/10 08:01:42;;;;;;;181.98;53.03;;;-0.20;99.90;;;;;;4986988;28;20092;-73
2020/12/10 08:04:18;;;;;;;180.75;54.28;;;-0.20;99.90;;;;;;4987120;28;20401;-74
2020/12/10 08:06:49;;;;;;;178.38;56.03;;;-0.10;99.90;;;;;;4990022;28;20073;-74
2020/12/10 08:09:16;;;;;;;176.68;58.85;;;-0.10;99.90;;;;;;4986839;28;20058;-73
2020/12/10 08:11:54;;;;;;;192.95;59.33;;;-0.10;99.90;;;;;;4989708;28;20077;-74
2020/12/10 08:14:26;;;;;;;170.95;55.00;;;-0.10;99.90;;;;;;4988406;28;20047;-73
2020/12/10 08:16:53;;;;;;;125.80;39.22;;;0.00;99.90;;;;;;4990006;28;20046;-75
2020/12/10 08:19:21;;;;;;;168.13;52.53;;;0.00;99.90;;;;;;4989632;28;20082;-73
2020/12/10 08:21:49;;;;;;;174.38;53.75;;;0.00;99.90;;;;;;4989707;28;20042;-73
2020/12/10 08:24:36;;;;;;;172.20;52.67;;;0.00;99.90;;;;;;4984822;28;20129;-74
2020/12/10 08:27:04;;;;;;;155.80;52.63;;;0.00;99.90;;;;;;4987146;28;20050;-74
2020/12/10 08:29:31;;;;;;;162.52;51.42;;;0.00;99.90;;;;;;4988872;28;20046;-73
2020/12/10 08:32:08;;;;;;;157.18;51.20;;;0.10;99.90;;;;;;5002935;28;20046;-75
2020/12/10 08:34:35;;;;;;;165.40;50.72;;;0.10;99.90;;;;;;4984987;28;20459;-72
2020/12/10 08:37:07;;;;;;;139.95;50.53;;;0.10;99.90;;;;;;4989345;28;20101;-74
2020/12/10 08:39:35;;;;;;;143.05;49.50;;;0.10;99.90;;;;;;4986348;28;20061;-72
2020/12/10 08:42:03;;;;;;;135.88;47.55;;;0.10;99.90;;;;;;4989166;28;20046;-73
2020/12/10 08:44:44;;;;;;;119.70;43.78;;;0.20;99.90;;;;;;4987959;28;20046;-71
2020/12/10 08:47:25;;;;;;;126.45;44.25;;;0.20;99.90;;;;;;4988315;28;20061;-72
2020/12/10 08:50:25;;;;;;;123.43;43.83;;;0.10;99.90;;;;;;4988186;28;20062;-74
2020/12/10 08:52:59;;;;;;;120.60;44.35;;;0.10;99.90;;;;;;4989095;28;20101;-72
2020/12/10 08:55:28;;;;;;;111.05;42.53;;;0.10;99.90;;;;;;5003299;28;20455;-72
2020/12/10 08:57:56;;;;;;;104.90;39.80;;;0.20;99.90;;;;;;5007113;28;20065;-73
2020/12/10 09:00:23;;;;;;;69.18;28.33;;;0.20;99.90;;;;;;4996357;28;20045;-72
2020/12/10 09:02:49;;;;;;;39.70;21.77;;;0.20;99.90;;;;;;5008552;28;20057;-72
2020/12/10 09:05:19;;;;;;;34.03;19.08;;;0.10;99.90;;;;;;5007808;28;20129;-73
2020/12/10 09:07:45;;;;;;;43.60;22.98;;;0.10;99.90;;;;;;4977839;28;20062;-74
2020/12/10 09:10:12;;;;;;;49.45;23.95;;;0.10;99.90;;;;;;4986527;28;20464;-74
2020/12/10 09:12:39;;;;;;;52.55;25.30;;;0.10;99.90;;;;;;4988037;28;20050;-74
2020/12/10 09:15:05;;;;;;;36.90;20.23;;;0.20;99.90;;;;;;4988213;28;20046;-74
2020/12/10 09:17:32;;;;;;;47.72;24.17;;;0.20;99.90;;;;;;4988315;28;20046;-74
2020/12/10 09:19:59;;;;;;;43.38;23.27;;;0.30;99.90;;;;;;4982908;28;20156;-75
2020/12/10 09:22:25;;;;;;;46.28;23.50;;;0.40;99.90;;;;;;4986742;28;20046;-76
2020/12/10 09:24:55;;;;;;;44.55;24.08;;;0.40;99.90;;;;;;5002037;28;20065;-74
2020/12/10 09:27:24;;;;;;;46.78;24.02;;;0.50;99.90;;;;;;5005278;28;20487;-77
2020/12/10 09:29:51;;;;;;;37.10;20.60;;;0.40;99.90;;;;;;5006557;28;20053;-74
2020/12/10 09:32:18;;;;;;;39.30;20.92;;;0.40;99.90;;;;;;5008312;28;20062;-74
2020/12/10 09:34:44;;;;;;;40.42;20.85;;;0.40;99.90;;;;;;5007920;28;20768;-74
2020/12/10 09:37:11;;;;;;;39.28;21.27;;;0.50;99.90;;;;;;4988910;28;20096;-75
2020/12/10 09:39:38;;;;;;;38.03;19.73;;;0.60;99.90;;;;;;5010076;28;20077;-76
2020/12/10 09:42:05;;;;;;;37.42;21.13;;;0.70;99.90;;;;;;5011564;28;20366;-74
2020/12/10 09:44:32;;;;;;;31.05;18.33;;;0.80;99.90;;;;;;5011347;28;20481;-74
2020/12/10 09:46:58;;;;;;;26.83;15.32;;;0.90;99.90;;;;;;5012268;28;20065;-74
2020/12/10 09:49:25;;;;;;;24.27;15.27;;;1.00;99.90;;;;;;5011183;28;20046;-75
2020/12/10 09:51:59;;;;;;;23.52;15.38;;;1.00;99.90;;;;;;5020207;28;20053;-74
2020/12/10 09:59:56;;;;;;;25.80;15.93;;;1.00;99.90;;;;;;5011518;28;20084;-75
2020/12/10 10:02:23;;;;;;;24.95;16.27;;;1.10;99.90;;;;;;5011288;28;20149;-75
2020/12/10 10:04:50;;;;;;;30.92;18.83;;;1.10;99.90;;;;;;5008174;28;20050;-75
2020/12/10 10:07:17;;;;;;;29.85;17.73;;;1.10;99.90;;;;;;5010419;28;20103;-76
2020/12/10 10:09:44;;;;;;;30.63;18.73;;;1.10;99.90;;;;;;5004125;28;20046;-74
2020/12/10 10:12:11;;;;;;;26.85;16.58;;;1.00;99.90;;;;;;4998591;28;20046;-74
2020/12/10 10:14:37;;;;;;;28.95;17.65;;;1.10;99.90;;;;;;5006622;28;20046;-74
2020/12/10 10:17:08;;;;;;;27.13;16.63;;;1.30;99.90;;;;;;5011718;28;20096;-74
2020/12/10 10:19:37;;;;;;;24.48;15.00;;;1.20;99.90;;;;;;4992420;28;20444;-74
2020/12/10 10:22:04;;;;;;;25.55;16.02;;;1.20;99.90;;;;;;4993486;28;20112;-74
2020/12/10 10:24:32;;;;;;;28.45;17.25;;;1.00;99.90;;;;;;5006195;28;20046;-74
2020/12/10 10:26:59;;;;;;;29.60;16.48;;;1.00;99.90;;;;;;5005621;28;20104;-73
2020/12/10 10:29:26;;;;;;;28.75;17.00;;;0.90;99.90;;;;;;5010777;28;20061;-75
2020/12/10 10:31:58;;;;;;;31.40;18.48;;;0.90;99.90;;;;;;4989204;28;20050;-75
2020/12/10 10:34:28;;;;;;;30.40;18.52;;;0.80;99.90;;;;;;5002571;28;20045;-76
2020/12/10 10:36:56;;;;;;;34.97;20.25;;;0.80;99.90;;;;;;5004830;28;20065;-75
2020/12/10 10:39:22;;;;;;;34.03;19.35;;;0.80;99.90;;;;;;5003898;28;20041;-73
2020/12/10 10:41:49;;;;;;;30.73;19.00;;;0.90;99.90;;;;;;5009546;28;20473;-74
2020/12/10 10:44:16;;;;;;;34.35;18.25;;;0.90;99.90;;;;;;5009623;28;20049;-72
2020/12/10 10:46:43;;;;;;;32.95;18.75;;;0.80;99.90;;;;;;4989856;28;20073;-74
2020/12/10 10:49:09;;;;;;;41.15;21.35;;;0.90;99.90;;;;;;4991549;28;20096;-73
2020/12/10 10:51:36;;;;;;;40.90;22.42;;;0.90;99.90;;;;;;5005997;28;20104;-74
2020/12/10 10:54:02;;;;;;;42.72;22.55;;;0.80;99.90;;;;;;4994366;28;20081;-74
2020/12/10 10:56:30;;;;;;;45.33;24.65;;;0.80;99.90;;;;;;4989988;28;20437;-74
2020/12/10 10:58:57;;;;;;;50.40;25.02;;;0.80;99.90;;;;;;4991442;28;20738;-74
2020/12/10 11:01:29;;;;;;;51.17;24.83;;;0.70;99.90;;;;;;4994680;28;20720;-73
2020/12/10 11:03:57;;;;;;;37.03;19.20;;;0.80;99.90;;;;;;4998572;28;20049;-75
2020/12/10 11:06:24;;;;;;;54.17;26.58;;;0.80;99.90;;;;;;5010451;28;20145;-73
2020/12/10 11:08:55;;;;;;;60.38;27.35;;;0.80;99.90;;;;;;5009088;28;20130;-73
2020/12/10 11:11:22;;;;;;;54.05;27.13;;;0.90;99.90;;;;;;5011100;28;20176;-72
2020/12/10 11:13:50;;;;;;;63.70;30.90;;;0.90;99.90;;;;;;4990818;28;20054;-73
2020/12/10 11:16:16;;;;;;;60.40;29.02;;;0.90;99.90;;;;;;4997521;28;20077;-73
2020/12/10 11:18:45;;;;;;;60.67;27.35;;;0.90;99.90;;;;;;4993286;28;20050;-73
2020/12/10 11:21:13;;;;;;;65.75;30.70;;;0.90;99.90;;;;;;4980764;28;20462;-73
2020/12/10 11:23:41;;;;;;;62.60;29.50;;;0.90;99.90;;;;;;5007949;28;20057;-73
2020/12/10 11:26:08;;;;;;;68.85;32.22;;;0.90;99.90;;;;;;4992777;28;20088;-72
2020/12/10 11:28:35;;;;;;;66.88;31.27;;;0.90;99.90;;;;;;4991997;28;20430;-73
2020/12/10 11:31:02;;;;;;;75.57;31.95;;;0.90;99.90;;;;;;5010859;28;20092;-73
2020/12/10 11:33:29;;;;;;;67.32;32.90;;;0.80;99.90;;;;;;4992360;28;20145;-72
2020/12/10 11:35:55;;;;;;;74.93;33.95;;;0.80;99.90;;;;;;5010406;28;20045;-76
2020/12/10 11:38:22;;;;;;;76.50;33.13;;;0.90;99.90;;;;;;4990081;28;20130;-74
2020/12/10 11:40:49;;;;;;;64.70;33.65;;;0.80;99.90;;;;;;4992419;28;20053;-73
2020/12/10 11:43:16;;;;;;;74.20;34.78;;;0.80;99.90;;;;;;4997184;28;20100;-73
2020/12/10 11:45:43;;;;;;;82.13;34.92;;;0.80;99.90;;;;;;5009780;28;20050;-72
2020/12/10 11:48:09;;;;;;;73.00;34.10;;;0.80;99.90;;;;;;5009925;28;20057;-73
2020/12/10 11:50:37;;;;;;;75.75;35.15;;;0.90;99.90;;;;;;5010156;28;20050;-72
2020/12/10 11:53:05;;;;;;;77.57;33.50;;;0.90;99.90;;;;;;5007725;28;20080;-73
2020/12/10 11:55:31;;;;;;;72.32;34.13;;;0.80;99.90;;;;;;5011289;28;20115;-73
2020/12/10 11:57:58;;;;;;;76.63;33.30;;;0.90;99.90;;;;;;5008969;28;20160;-73
2020/12/10 12:00:25;;;;;;;73.03;33.47;;;0.90;99.90;;;;;;5010042;28;20050;-75
2020/12/10 12:02:51;;;;;;;54.53;28.70;;;0.90;99.90;;;;;;5009203;28;20046;-72
2020/12/10 12:05:19;;;;;;;64.60;30.20;;;0.90;99.90;;;;;;5009657;28;20042;-72
2020/12/10 12:07:47;;;;;;;62.70;28.92;;;0.90;99.90;;;;;;5007056;28;20052;-73
2020/12/10 12:10:15;;;;;;;59.78;29.80;;;0.80;99.90;;;;;;5009254;28;20068;-72
2020/12/10 12:12:42;;;;;;;60.75;28.88;;;0.90;99.90;;;;;;5006590;28;20053;-72
2020/12/10 12:15:09;;;;;;;57.75;29.08;;;0.90;99.90;;;;;;4996691;28;20136;-72
2020/12/10 12:17:35;;;;;;;56.10;28.15;;;1.00;99.90;;;;;;5000860;28;20042;-73
2020/12/10 12:20:05;;;;;;;55.58;26.73;;;1.20;99.90;;;;;;5007385;28;20112;-74
2020/12/10 12:22:36;;;;;;;59.50;30.63;;;1.20;99.90;;;;;;5008141;28;20354;-73
2020/12/10 12:25:04;;;;;;;58.30;29.63;;;1.20;99.90;;;;;;5009498;28;20057;-72
2020/12/10 12:27:30;;;;;;;62.17;30.80;;;1.20;99.90;;;;;;5008939;28;20112;-72
2020/12/10 12:29:57;;;;;;;60.55;30.27;;;1.30;99.90;;;;;;5008767;28;20084;-73
2020/12/10 12:32:23;;;;;;;56.17;30.13;;;1.20;99.90;;;;;;5010456;28;20064;-72
2020/12/10 12:34:50;;;;;;;51.92;26.88;;;1.30;99.90;;;;;;5003110;28;20156;-73
2020/12/10 12:37:17;;;;;;;56.22;28.23;;;1.30;99.90;;;;;;5005041;28;20123;-73
2020/12/10 12:39:43;;;;;;;59.38;29.10;;;1.30;99.90;;;;;;5005874;28;20053;-73
2020/12/10 12:42:10;;;;;;;49.05;27.02;;;1.30;99.90;;;;;;4991614;28;20042;-72
2020/12/10 12:44:37;;;;;;;50.85;28.20;;;1.30;99.90;;;;;;5008084;28;20106;-71
2020/12/10 12:47:08;;;;;;;56.10;30.33;;;1.30;99.90;;;;;;5009256;28;20410;-74
2020/12/10 12:49:36;;;;;;;58.72;28.88;;;1.20;99.90;;;;;;5013624;28;20472;-72